Time;durP1;ratioP1;P1;durP2;ratioP2;P2;SDS_P1;SDS_P2;PMS_P1;PMS_P2;Temp;Humidity;BMP_temperature;BMP_pressure;BME280_temperature;BME280_humidity;BME280_pressure;Samples;Min_cycle;Max_cycle;Signal;HPM_P1;HPM_P2
2022/01/29 00:01:50;;;;;;;9.63;3.90;;;;;;;0.38;82.04;101341.39;1632821;87;26458;-77
2022/01/29 00:04:17;;;;;;;7.83;3.08;;;;;;;0.39;82.10;101341.75;1632697;87;25781;-76
2022/01/29 00:06:44;;;;;;;10.03;3.45;;;;;;;0.36;82.05;101341.51;1633015;87;27453;-77
2022/01/29 00:09:14;;;;;;;6.20;2.77;;;;;;;0.36;82.18;101344.61;1632471;87;25809;-78
2022/01/29 00:11:39;;;;;;;8.50;4.15;;;;;;;0.36;82.19;101345.46;1632585;87;25872;-77
2022/01/29 00:14:06;;;;;;;5.78;2.92;;;;;;;0.34;82.22;101342.55;1632491;87;26677;-77
2022/01/29 00:16:33;;;;;;;8.88;3.05;;;;;;;0.33;82.21;101346.97;1632712;87;26477;-78
2022/01/29 00:18:59;;;;;;;7.30;3.47;;;;;;;0.32;82.31;101352.36;1632606;87;27484;-76
2022/01/29 00:21:25;;;;;;;8.78;3.33;;;;;;;0.31;82.34;101354.60;1632668;86;25917;-77
2022/01/29 00:23:51;;;;;;;8.00;3.00;;;;;;;0.30;82.35;101354.25;1632358;87;25931;-76
2022/01/29 00:26:21;;;;;;;7.83;3.45;;;;;;;0.28;82.47;101350.38;1632848;87;25958;-77
2022/01/29 00:28:46;;;;;;;6.95;2.95;;;;;;;0.28;82.54;101354.33;1632442;87;25749;-76
2022/01/29 00:31:12;;;;;;;12.35;3.90;;;;;;;0.27;82.56;101357.93;1632366;86;28251;-76
2022/01/29 00:33:38;;;;;;;8.65;3.40;;;;;;;0.26;82.64;101360.64;1632411;87;25798;-77
2022/01/29 00:36:05;;;;;;;11.28;3.45;;;;;;;0.24;82.69;101360.75;1632440;87;25793;-77
2022/01/29 00:38:33;;;;;;;9.35;3.90;;;;;;;0.22;82.78;101354.75;1632780;87;26514;-77
2022/01/29 00:41:00;;;;;;;6.20;2.92;;;;;;;0.20;82.92;101351.38;1632749;86;25325;-76
2022/01/29 00:43:26;;;;;;;11.80;3.83;;;;;;;0.20;82.91;101363.23;1632695;87;27448;-77
2022/01/29 00:45:52;;;;;;;6.78;2.80;;;;;;;0.15;82.94;101356.59;1632480;87;25887;-77
2022/01/29 00:48:19;;;;;;;11.30;3.92;;;;;;;0.16;83.10;101347.26;1632779;87;25312;-77
2022/01/29 00:50:45;;;;;;;7.20;3.12;;;;;;;0.15;83.22;101342.10;1632293;86;25801;-77
2022/01/29 00:53:11;;;;;;;9.05;2.98;;;;;;;0.14;83.18;101350.94;1633153;87;26232;-77
2022/01/29 00:55:41;;;;;;;11.50;3.33;;;;;;;0.10;83.24;101350.30;1632747;86;28524;-78
2022/01/29 00:58:06;;;;;;;9.63;3.33;;;;;;;0.09;83.42;101344.66;1633120;87;25866;-76
2022/01/29 01:00:32;;;;;;;8.55;3.70;;;;;;;0.10;83.51;101334.97;1632865;86;25742;-77
2022/01/29 01:02:58;;;;;;;12.07;3.42;;;;;;;0.10;83.56;101337.14;1632788;87;26542;-77
2022/01/29 01:05:25;;;;;;;12.10;4.55;;;;;;;0.12;83.54;101339.66;1632825;87;25804;-77
2022/01/29 01:07:51;;;;;;;16.50;5.05;;;;;;;0.11;83.63;101340.62;1633005;87;28259;-76
2022/01/29 01:10:17;;;;;;;8.63;3.25;;;;;;;0.11;83.67;101345.39;1632630;86;25986;-77
2022/01/29 01:12:43;;;;;;;9.53;3.87;;;;;;;0.10;83.70;101339.77;1632761;87;25293;-77
2022/01/29 01:15:10;;;;;;;11.78;4.25;;;;;;;0.05;83.71;101331.78;1632943;87;25763;-78
2022/01/29 01:17:36;;;;;;;10.38;3.15;;;;;;;0.05;83.95;101337.05;1632833;87;25893;-77
2022/01/29 01:20:05;;;;;;;9.98;4.25;;;;;;;0.04;84.16;101342.81;1632721;86;27477;-76
2022/01/29 01:22:32;;;;;;;13.90;6.30;;;;;;;0.04;84.21;101342.81;1632082;85;26248;-75
2022/01/29 01:24:58;;;;;;;11.03;3.87;;;;;;;0.04;84.20;101338.02;1632808;87;25916;-75
2022/01/29 01:27:24;;;;;;;12.13;3.40;;;;;;;0.00;84.17;101331.62;1632872;87;25763;-75
2022/01/29 01:29:51;;;;;;;11.90;3.87;;;;;;;0.00;84.26;101336.07;1632747;86;25746;-75
2022/01/29 01:32:17;;;;;;;11.55;4.12;;;;;;;-0.01;84.43;101327.78;1632714;87;27627;-75
2022/01/29 01:34:48;;;;;;;18.02;4.85;;;;;;;-0.05;84.39;101330.25;1633124;87;25897;-76
2022/01/29 01:37:27;;;;;;;11.65;4.65;;;;;;;-0.07;84.49;101325.09;1632635;87;26555;-75
2022/01/29 01:39:41;;;;;;;8.05;3.55;;;;;;;-0.05;84.57;101320.56;1630965;86;26726;-75
2022/01/29 01:42:08;;;;;;;10.88;3.30;;;;;;;-0.06;84.49;101312.75;1632940;87;25331;-76
2022/01/29 01:44:37;;;;;;;8.73;3.95;;;;;;;-0.07;84.57;101317.66;1632763;87;27480;-76
2022/01/29 01:47:04;;;;;;;10.30;3.02;;;;;;;-0.09;84.44;101311.66;1632974;86;25764;-75
2022/01/29 01:49:31;;;;;;;7.40;3.08;;;;;;;-0.11;84.44;101310.41;1632355;86;25829;-76
2022/01/29 01:52:05;;;;;;;10.03;3.02;;;;;;;-0.11;84.45;101315.68;1632807;87;26611;-75
2022/01/29 01:54:33;;;;;;;12.23;3.37;;;;;;;-0.10;84.51;101309.95;1633012;87;26100;-75
2022/01/29 01:57:00;;;;;;;8.93;3.25;;;;;;;-0.12;84.43;101306.11;1632717;87;27510;-76
2022/01/29 01:59:28;;;;;;;13.72;2.90;;;;;;;-0.15;84.51;101303.67;1632151;86;25967;-74
2022/01/29 02:01:54;;;;;;;11.70;2.95;;;;;;;-0.15;84.59;101302.34;1632169;87;25846;-75
2022/01/29 02:04:22;;;;;;;6.87;2.55;;;;;;;-0.14;84.60;101301.89;1632115;87;26562;-75
2022/01/29 02:06:51;;;;;;;7.90;2.65;;;;;;;-0.17;84.49;101295.03;1632856;87;25948;-75
2022/01/29 02:09:20;;;;;;;7.55;3.27;;;;;;;-0.18;84.42;101297.30;1632164;86;27461;-76
2022/01/29 02:11:55;;;;;;;6.97;3.55;;;;;;;-0.20;84.54;101294.40;1632684;87;25803;-75
2022/01/29 02:14:28;;;;;;;8.80;3.08;;;;;;;-0.22;84.58;101289.24;1632620;87;25367;-75
2022/01/29 02:16:53;;;;;;;9.10;3.60;;;;;;;-0.21;84.69;101279.06;1632458;87;25903;-75
2022/01/29 02:19:20;;;;;;;6.92;3.12;;;;;;;-0.21;84.65;101284.80;1632614;86;25948;-74
2022/01/29 02:21:46;;;;;;;9.65;3.27;;;;;;;-0.23;84.60;101290.64;1632557;87;27452;-75
2022/01/29 02:24:12;;;;;;;9.20;3.08;;;;;;;-0.25;84.68;101291.22;1632439;87;25743;-75
2022/01/29 02:26:39;;;;;;;10.68;2.90;;;;;;;-0.26;84.89;101291.71;1632781;87;25899;-75
2022/01/29 02:29:06;;;;;;;10.28;2.95;;;;;;;-0.27;84.91;101289.16;1632352;87;26514;-74
2022/01/29 02:31:32;;;;;;;8.70;3.15;;;;;;;-0.27;85.04;101298.37;1632572;86;26013;-75
2022/01/29 02:33:59;;;;;;;8.98;3.17;;;;;;;-0.28;85.13;101289.62;1632437;87;27661;-75
2022/01/29 02:36:25;;;;;;;10.43;3.45;;;;;;;-0.27;85.05;101293.95;1632689;87;26012;-74
2022/01/29 02:38:51;;;;;;;10.85;3.30;;;;;;;-0.28;85.05;101296.70;1632738;87;26640;-76
2022/01/29 02:41:19;;;;;;;9.95;3.50;;;;;;;-0.28;85.08;101302.78;1633018;86;25819;-75
2022/01/29 02:43:51;;;;;;;9.65;3.35;;;;;;;-0.28;85.07;101296.20;1632590;87;25921;-75
2022/01/29 02:48:43;;;;;;;11.57;3.62;;;;;;;-0.30;85.12;101296.78;1633057;87;26408;-75
2022/01/29 02:51:09;;;;;;;10.00;3.15;;;;;;;-0.31;85.08;101300.84;1632663;86;25931;-76
2022/01/29 02:53:36;;;;;;;8.83;3.15;;;;;;;-0.31;85.13;101299.52;1632397;87;25822;-75
2022/01/29 02:56:03;;;;;;;9.28;3.70;;;;;;;-0.35;85.05;101294.94;1632422;87;25793;-75
2022/01/29 02:58:29;;;;;;;8.38;3.33;;;;;;;-0.38;85.15;101292.50;1632582;87;27543;-75
2022/01/29 03:00:56;;;;;;;9.95;3.70;;;;;;;-0.37;85.19;101294.66;1632551;86;25770;-74
2022/01/29 03:03:22;;;;;;;7.67;3.42;;;;;;;-0.36;85.35;101287.97;1632378;87;25820;-76
2022/01/29 03:05:48;;;;;;;10.20;3.50;;;;;;;-0.37;85.43;101290.25;1632778;87;26429;-75
2022/01/29 03:08:14;;;;;;;11.30;4.25;;;;;;;-0.37;85.47;101289.40;1636447;87;25795;-75
2022/01/29 03:10:40;;;;;;;12.20;4.65;;;;;;;-0.38;85.49;101291.64;1639235;85;28289;-74
2022/01/29 03:13:07;;;;;;;9.38;3.92;;;;;;;-0.39;85.52;101287.34;1636774;87;26620;-75
2022/01/29 03:15:33;;;;;;;12.43;4.67;;;;;;;-0.37;85.68;101284.14;1633174;87;25981;-75
2022/01/29 03:17:59;;;;;;;11.12;4.37;;;;;;;-0.40;85.71;101279.06;1632952;87;25819;-75
2022/01/29 03:20:26;;;;;;;10.70;4.12;;;;;;;-0.42;85.83;101279.63;1629419;86;25913;-75
2022/01/29 03:22:52;;;;;;;13.08;4.22;;;;;;;-0.42;85.92;101280.48;1632433;87;27629;-76
2022/01/29 03:25:20;;;;;;;10.23;3.85;;;;;;;-0.42;86.06;101278.31;1632899;87;25811;-76
2022/01/29 03:27:46;;;;;;;11.68;4.37;;;;;;;-0.42;86.13;101275.22;1633142;87;25794;-74
2022/01/29 03:30:13;;;;;;;13.88;4.00;;;;;;;-0.41;86.08;101271.66;1632662;86;26629;-75
2022/01/29 03:32:40;;;;;;;9.28;3.90;;;;;;;-0.40;86.13;101272.02;1632973;87;25948;-75
2022/01/29 03:35:07;;;;;;;7.58;3.37;;;;;;;-0.38;86.32;101269.27;1633126;87;27473;-75
2022/01/29 03:37:33;;;;;;;9.40;3.52;;;;;;;-0.40;86.34;101260.64;1633019;87;25942;-75
2022/01/29 03:40:03;;;;;;;7.70;4.25;;;;;;;-0.43;86.29;101249.02;1633123;86;26485;-74
2022/01/29 03:42:34;;;;;;;12.88;4.25;;;;;;;-0.44;86.36;101255.20;1632881;87;25956;-76
2022/01/29 03:44:58;;;;;;;12.07;4.10;;;;;;;-0.44;86.41;101248.16;1632568;87;25825;-74
2022/01/29 03:47:25;;;;;;;15.45;5.83;;;;;;;-0.43;86.57;101250.33;1633296;87;28726;-76
2022/01/29 03:49:51;;;;;;;11.08;4.45;;;;;;;-0.41;86.65;101255.88;1632707;86;25795;-76
2022/01/29 03:52:17;;;;;;;13.48;4.72;;;;;;;-0.41;86.65;101256.33;1632818;87;26471;-75
2022/01/29 03:54:44;;;;;;;12.63;5.37;;;;;;;-0.41;86.66;101260.28;1632528;87;25813;-75
2022/01/29 03:57:10;;;;;;;10.53;3.92;;;;;;;-0.40;86.65;101272.02;1632565;87;25926;-76
2022/01/29 03:59:36;;;;;;;13.70;4.50;;;;;;;-0.39;86.70;101277.66;1632245;86;27628;-76
2022/01/29 04:02:03;;;;;;;11.75;4.37;;;;;;;-0.41;86.62;101275.61;1632378;87;25871;-75
2022/01/29 04:04:29;;;;;;;8.23;4.25;;;;;;;-0.40;86.73;101277.28;1632306;87;26422;-75
2022/01/29 04:06:59;;;;;;;16.55;4.47;;;;;;;-0.40;86.73;101269.84;1632463;87;25765;-76
2022/01/29 04:09:23;;;;;;;10.98;5.10;;;;;;;-0.43;86.65;101276.65;1632005;86;26158;-74
2022/01/29 04:11:49;;;;;;;10.53;3.52;;;;;;;-0.44;86.61;101283.69;1632397;87;28299;-76
2022/01/29 04:14:18;;;;;;;12.68;3.52;;;;;;;-0.47;86.81;101274.66;1632559;87;26515;-75
2022/01/29 04:16:46;;;;;;;11.53;4.37;;;;;;;-0.50;86.77;101280.15;1633138;87;25827;-76
2022/01/29 04:19:13;;;;;;;13.75;4.67;;;;;;;-0.52;86.87;101271.52;1632438;87;25825;-76
2022/01/29 04:21:41;;;;;;;11.12;4.05;;;;;;;-0.51;87.14;101260.52;1632594;87;25986;-75
2022/01/29 04:24:08;;;;;;;15.90;5.25;;;;;;;-0.53;87.02;101268.49;1632491;87;27491;-75
2022/01/29 04:26:35;;;;;;;13.48;5.08;;;;;;;-0.55;87.17;101260.32;1632594;87;25344;-75
2022/01/29 04:29:06;;;;;;;15.98;6.87;;;;;;;-0.57;87.52;101261.75;1632617;87;26009;-75
2022/01/29 04:31:59;;;;;;;9.98;5.62;;;;;;;-0.58;87.47;101256.12;1632447;86;26531;-75
2022/01/29 04:34:13;;;;;;;16.87;7.37;;;;;;;-0.58;87.66;101258.77;1630336;87;26500;-76
2022/01/29 04:36:39;;;;;;;7.17;4.55;;;;;;;-0.60;87.67;101255.85;1632536;87;27473;-75
2022/01/29 04:39:05;;;;;;;8.05;3.98;;;;;;;-0.60;87.76;101256.70;1632359;87;25798;-75
2022/01/29 04:41:31;;;;;;;15.65;5.10;;;;;;;-0.61;87.71;101260.73;1632492;86;26552;-75
2022/01/29 04:43:57;;;;;;;11.15;4.20;;;;;;;-0.61;87.72;101256.31;1632366;87;25829;-74
2022/01/29 04:46:24;;;;;;;15.05;4.58;;;;;;;-0.60;87.75;101253.22;1632421;87;25784;-75
2022/01/29 04:48:50;;;;;;;10.78;4.25;;;;;;;-0.60;87.96;101246.18;1632457;87;27481;-75
2022/01/29 04:51:16;;;;;;;13.28;4.97;;;;;;;-0.62;87.97;101251.98;1631978;86;25852;-76
2022/01/29 04:53:42;;;;;;;14.30;4.25;;;;;;;-0.63;88.11;101247.69;1632628;87;25768;-76
2022/01/29 04:56:08;;;;;;;10.20;4.83;;;;;;;-0.62;88.08;101244.59;1632775;87;26576;-76
2022/01/29 04:58:35;;;;;;;9.13;3.83;;;;;;;-0.62;88.10;101234.88;1632881;86;25768;-75
2022/01/29 05:01:03;;;;;;;12.33;5.40;;;;;;;-0.59;88.09;101235.16;1632711;86;27438;-75
2022/01/29 05:03:30;;;;;;;9.18;3.95;;;;;;;-0.58;88.02;101229.82;1632401;87;25927;-76
2022/01/29 05:05:57;;;;;;;10.48;4.83;;;;;;;-0.59;88.03;101232.06;1632745;87;25833;-75
2022/01/29 05:08:23;;;;;;;9.60;4.00;;;;;;;-0.59;88.07;101227.27;1632617;87;25862;-75
2022/01/29 05:10:50;;;;;;;10.15;5.05;;;;;;;-0.61;88.06;101229.16;1632887;86;25804;-75
2022/01/29 05:13:21;;;;;;;9.75;4.83;;;;;;;-0.61;88.15;101228.69;1632609;87;28248;-75
2022/01/29 05:15:59;;;;;;;11.95;5.03;;;;;;;-0.61;88.25;101233.95;1632182;87;25857;-75
2022/01/29 05:29:13;;;;;;;10.15;5.10;;;;;;;-0.65;88.62;101221.95;1632443;87;25894;-76
2022/01/29 05:31:39;;;;;;;12.05;5.83;;;;;;;-0.67;88.64;101219.89;1632652;87;25788;-74
2022/01/29 05:34:06;;;;;;;12.50;6.15;;;;;;;-0.66;88.67;101224.19;1632424;87;25861;-75
2022/01/29 05:36:32;;;;;;;12.03;5.90;;;;;;;-0.66;88.63;101210.22;1632474;85;25926;-75
2022/01/29 05:38:59;;;;;;;10.80;5.72;;;;;;;-0.65;88.69;101206.63;1632731;87;27484;-75
2022/01/29 05:41:25;;;;;;;10.93;6.40;;;;;;;-0.65;88.77;101196.95;1632542;86;25811;-75
2022/01/29 05:43:52;;;;;;;13.95;7.65;;;;;;;-0.66;88.60;101197.06;1632606;87;25800;-75
2022/01/29 05:46:18;;;;;;;14.33;8.05;;;;;;;-0.66;88.50;101199.20;1632882;87;26563;-75
2022/01/29 05:48:44;;;;;;;11.50;5.80;;;;;;;-0.66;88.44;101194.44;1632922;87;25877;-75
2022/01/29 05:51:11;;;;;;;13.78;6.45;;;;;;;-0.65;88.54;101198.73;1632127;86;27518;-76
2022/01/29 05:53:38;;;;;;;10.72;6.42;;;;;;;-0.66;88.45;101195.75;1608258;87;26009;-74
2022/01/29 05:56:05;;;;;;;14.35;8.43;;;;;;;-0.69;88.47;101200.73;1632605;87;25812;-75
2022/01/29 05:58:32;;;;;;;14.10;6.00;;;;;;;-0.70;88.47;101199.50;1632243;87;26017;-75
2022/01/29 06:00:58;;;;;;;13.60;6.08;;;;;;;-0.70;88.54;101200.34;1631731;86;25434;-75
2022/01/29 06:03:24;;;;;;;15.20;5.75;;;;;;;-0.74;88.53;101202.81;1632210;87;28454;-75
2022/01/29 06:05:51;;;;;;;13.03;4.80;;;;;;;-0.77;88.55;101203.85;1632366;87;25816;-76
2022/01/29 06:08:19;;;;;;;14.30;5.85;;;;;;;-0.79;88.76;101199.16;1632326;87;26014;-74
2022/01/29 06:10:46;;;;;;;13.32;5.37;;;;;;;-0.82;88.76;101201.16;1632417;86;25815;-74
2022/01/29 06:13:16;;;;;;;17.23;5.58;;;;;;;-0.83;88.92;101197.68;1632416;87;25928;-75
2022/01/29 06:15:46;;;;;;;14.05;6.12;;;;;;;-0.83;89.12;101203.41;1632479;87;27476;-77
2022/01/29 06:18:18;;;;;;;16.27;6.80;;;;;;;-0.83;89.09;101208.20;1632493;87;25859;-76
2022/01/29 06:20:47;;;;;;;21.30;6.78;;;;;;;-0.86;89.30;101204.47;1632204;86;25825;-76
2022/01/29 06:23:15;;;;;;;17.10;5.78;;;;;;;-0.84;89.27;101201.73;1632261;87;26657;-75
2022/01/29 06:25:42;;;;;;;10.60;5.20;;;;;;;-0.83;89.27;101198.99;1632498;87;26008;-75
2022/01/29 06:28:08;;;;;;;15.53;6.62;;;;;;;-0.83;89.28;101207.34;1632544;87;27493;-75
2022/01/29 06:30:35;;;;;;;17.87;6.75;;;;;;;-0.82;89.26;101200.70;1632236;86;25887;-75
2022/01/29 06:33:13;;;;;;;16.37;6.70;;;;;;;-0.81;89.35;101202.83;1632088;87;25787;-75
2022/01/29 06:35:42;;;;;;;19.82;7.55;;;;;;;-0.79;89.42;101200.94;1632132;87;25789;-74
2022/01/29 06:38:12;;;;;;;20.02;7.37;;;;;;;-0.78;89.40;101197.39;1632444;87;26017;-75
2022/01/29 06:40:39;;;;;;;18.17;7.05;;;;;;;-0.75;89.37;101202.92;1632481;86;28270;-75
2022/01/29 06:43:07;;;;;;;17.87;7.28;;;;;;;-0.74;89.27;101200.64;1632760;87;25669;-75
2022/01/29 06:45:36;;;;;;;16.50;6.58;;;;;;;-0.75;89.24;101198.52;1632365;87;26605;-75
2022/01/29 06:48:04;;;;;;;14.73;7.40;;;;;;;-0.74;89.20;101186.18;1632831;87;26229;-74
2022/01/29 06:50:31;;;;;;;18.12;8.25;;;;;;;-0.73;89.27;101181.31;1632022;86;26046;-75
2022/01/29 06:52:58;;;;;;;19.85;7.78;;;;;;;-0.73;89.21;101179.52;1632829;87;27438;-75
2022/01/29 06:55:24;;;;;;;22.58;8.78;;;;;;;-0.73;89.31;101178.21;1632487;87;25995;-75
2022/01/29 06:57:50;;;;;;;20.27;9.28;;;;;;;-0.72;89.30;101181.20;1632835;87;25987;-75
2022/01/29 07:00:17;;;;;;;20.92;9.85;;;;;;;-0.71;89.31;101169.75;1632861;86;25907;-75
2022/01/29 07:02:43;;;;;;;22.50;8.65;;;;;;;-0.69;89.41;101165.69;1632641;87;26541;-75
2022/01/29 07:05:11;;;;;;;17.73;8.65;;;;;;;-0.66;89.49;101162.87;1632989;87;28479;-77
2022/01/29 07:07:38;;;;;;;21.23;8.23;;;;;;;-0.64;89.42;101167.55;1632610;87;25903;-75
2022/01/29 07:10:09;;;;;;;18.65;8.18;;;;;;;-0.60;89.42;101159.36;1632892;86;25819;-74
2022/01/29 07:12:40;;;;;;;18.25;8.33;;;;;;;-0.57;89.43;101155.19;1632928;86;25878;-75
2022/01/29 07:15:08;;;;;;;13.93;7.28;;;;;;;-0.53;89.35;101159.30;1633205;87;25986;-75
2022/01/29 07:17:35;;;;;;;16.62;8.13;;;;;;;-0.49;89.36;101151.56;1632707;87;28103;-75
2022/01/29 07:20:03;;;;;;;19.70;7.50;;;;;;;-0.49;89.37;101151.56;1632599;86;25830;-75
2022/01/29 07:22:30;;;;;;;22.42;7.62;;;;;;;-0.46;89.36;101143.48;1632676;87;26531;-76
2022/01/29 07:24:56;;;;;;;20.00;8.33;;;;;;;-0.43;89.37;101139.34;1632809;87;25839;-75
2022/01/29 07:27:22;;;;;;;16.82;8.00;;;;;;;-0.38;89.44;101135.05;1633007;86;25786;-75
2022/01/29 07:29:49;;;;;;;23.77;7.20;;;;;;;-0.37;89.38;101133.66;1632902;86;27687;-76
2022/01/29 07:32:15;;;;;;;18.62;8.88;;;;;;;-0.34;89.42;101127.34;1632485;87;26631;-75
2022/01/29 07:34:41;;;;;;;16.55;6.65;;;;;;;-0.30;89.39;101116.97;1632591;87;26524;-75
2022/01/29 07:37:07;;;;;;;16.42;7.40;;;;;;;-0.29;89.47;101112.91;1632436;87;26337;-76
2022/01/29 07:39:34;;;;;;;24.72;8.78;;;;;;;-0.25;89.50;101114.38;1632253;86;25824;-75
2022/01/29 07:42:01;;;;;;;18.32;8.38;;;;;;;-0.23;89.52;101105.90;1632476;87;28311;-75
2022/01/29 07:44:29;;;;;;;21.75;9.18;;;;;;;-0.19;89.54;101110.00;1632807;87;26626;-75
2022/01/29 07:46:55;;;;;;;26.57;10.10;;;;;;;-0.18;89.52;101106.44;1632606;87;25891;-75
2022/01/29 07:49:22;;;;;;;27.98;11.28;;;;;;;-0.16;89.54;101104.54;1632528;86;25831;-75
2022/01/29 07:51:48;;;;;;;19.07;8.70;;;;;;;-0.12;89.58;101099.42;1632189;86;25983;-76
2022/01/29 07:54:14;;;;;;;22.25;6.97;;;;;;;-0.08;89.66;101091.67;1632623;87;27473;-75
2022/01/29 07:56:40;;;;;;;24.70;12.30;;;;;;;-0.05;89.73;101095.42;1632478;87;25801;-75
2022/01/29 07:59:07;;;;;;;20.20;8.85;;;;;;;0.01;89.85;101099.41;1638276;87;25787;-75
2022/01/29 08:01:33;;;;;;;23.27;11.80;;;;;;;0.06;89.87;101093.35;1643941;85;25833;-75
2022/01/29 08:03:59;;;;;;;15.43;7.30;;;;;;;0.10;89.92;101092.19;1643837;85;25978;-75
2022/01/29 08:06:32;;;;;;;24.12;7.80;;;;;;;0.17;89.98;101089.46;1643977;87;27703;-75
2022/01/29 08:08:58;;;;;;;16.75;7.80;;;;;;;0.22;90.05;101082.55;1643903;85;25655;-74
2022/01/29 08:11:25;;;;;;;24.35;8.40;;;;;;;0.25;90.05;101070.49;1643854;85;25871;-75
2022/01/29 08:13:52;;;;;;;21.15;8.78;;;;;;;0.31;90.02;101068.73;1643837;87;25944;-75
2022/01/29 08:16:18;;;;;;;22.55;8.08;;;;;;;0.36;90.05;101067.94;1644030;87;25999;-75
2022/01/29 08:18:45;;;;;;;18.50;8.20;;;;;;;0.41;90.03;101064.47;1643919;87;27535;-75
2022/01/29 08:21:15;;;;;;;20.48;8.73;;;;;;;0.46;90.02;101064.99;1643799;85;26195;-75
2022/01/29 08:23:42;;;;;;;27.07;10.55;;;;;;;0.51;90.01;101072.10;1643655;87;25861;-76
2022/01/29 08:26:09;;;;;;;20.68;9.80;;;;;;;0.56;89.93;101066.84;1643946;87;26669;-74
2022/01/29 08:28:36;;;;;;;25.15;10.28;;;;;;;0.62;90.02;101056.35;1621429;87;25812;-74
2022/01/29 08:31:03;;;;;;;23.60;9.45;;;;;;;0.65;90.05;101043.78;1643687;85;27603;-75
2022/01/29 08:33:29;;;;;;;29.63;10.65;;;;;;;0.66;89.88;101028.30;1643670;87;26466;-75
2022/01/29 08:35:57;;;;;;;23.83;9.78;;;;;;;0.68;89.69;101033.48;1643958;87;25800;-75
2022/01/29 08:38:26;;;;;;;20.95;8.68;;;;;;;0.70;89.77;101024.52;1643909;87;43740;-76
2022/01/29 08:40:54;;;;;;;23.83;9.48;;;;;;;0.74;89.81;101018.06;1644097;85;26612;-76
2022/01/29 08:43:22;;;;;;;25.97;9.90;;;;;;;0.76;89.85;101010.88;1644020;86;28529;-75
2022/01/29 08:45:50;;;;;;;17.23;7.65;;;;;;;0.80;89.89;101014.11;1643892;87;26009;-75
2022/01/29 08:48:18;;;;;;;22.15;8.65;;;;;;;0.83;89.87;101011.73;1644095;87;26601;-75
2022/01/29 08:50:44;;;;;;;21.00;9.95;;;;;;;0.88;89.80;101010.92;1643642;85;26258;-74
2022/01/29 08:53:12;;;;;;;21.95;8.58;;;;;;;0.92;89.88;101011.05;1643773;87;25913;-76
2022/01/29 08:55:38;;;;;;;23.00;10.03;;;;;;;0.97;89.94;101008.88;1643903;87;27472;-75
2022/01/29 08:58:08;;;;;;;22.87;8.98;;;;;;;1.02;90.04;101010.23;1644066;87;25765;-75
2022/01/29 09:00:38;;;;;;;24.55;7.50;;;;;;;1.11;90.15;101011.34;1643641;85;26376;-75
2022/01/29 09:03:05;;;;;;;24.57;9.47;;;;;;;1.17;90.06;100999.84;1643944;85;25776;-76
2022/01/29 09:05:32;;;;;;;23.55;9.95;;;;;;;1.22;89.97;101001.62;1643708;87;26637;-75
2022/01/29 09:07:58;;;;;;;27.93;9.85;;;;;;;1.30;90.06;100999.27;1644116;87;27512;-75
2022/01/29 09:10:26;;;;;;;24.92;10.78;;;;;;;1.38;90.00;101003.94;1643708;85;25816;-75
2022/01/29 09:12:53;;;;;;;20.82;10.25;;;;;;;1.43;89.84;101001.30;1644195;87;25574;-76
2022/01/29 09:15:19;;;;;;;26.30;10.18;;;;;;;1.46;89.53;100994.47;1643744;87;25902;-76
2022/01/29 09:17:46;;;;;;;33.02;10.75;;;;;;;1.46;89.47;100990.51;1644025;85;25901;-76
2022/01/29 09:20:12;;;;;;;21.70;9.05;;;;;;;1.47;89.48;100990.88;1643418;85;27618;-75
2022/01/29 09:22:39;;;;;;;22.35;9.45;;;;;;;1.50;89.48;100992.42;1643814;87;25938;-75
2022/01/29 09:25:06;;;;;;;23.35;8.80;;;;;;;1.53;89.66;100985.13;1643915;87;26066;-74
2022/01/29 09:27:33;;;;;;;31.60;11.35;;;;;;;1.58;89.62;100985.23;1644093;87;25892;-75
2022/01/29 09:29:59;;;;;;;33.20;11.30;;;;;;;1.60;89.37;100976.24;1643674;85;26526;-76
2022/01/29 09:32:25;;;;;;;24.43;9.90;;;;;;;1.63;89.53;100971.17;1643985;87;27533;-75
2022/01/29 09:34:51;;;;;;;24.90;10.03;;;;;;;1.67;89.54;100964.22;1643696;87;25943;-75
2022/01/29 09:37:18;;;;;;;27.00;9.88;;;;;;;1.68;89.33;100953.18;1644013;87;26559;-75
2022/01/29 09:39:44;;;;;;;27.35;9.43;;;;;;;1.72;89.42;100954.14;1643775;85;25793;-75
2022/01/29 09:42:11;;;;;;;30.70;9.93;;;;;;;1.76;89.54;100948.97;1643708;87;26475;-76
2022/01/29 09:44:37;;;;;;;32.58;8.98;;;;;;;1.83;89.70;100944.89;1643998;87;27490;-75
2022/01/29 09:47:05;;;;;;;27.95;10.10;;;;;;;1.87;89.52;100946.80;1643812;87;25800;-75
2022/01/29 09:49:33;;;;;;;39.95;11.20;;;;;;;1.90;89.50;100947.41;1643234;85;25769;-76
2022/01/29 09:52:01;;;;;;;28.30;10.20;;;;;;;1.96;89.26;100939.45;1641689;87;26277;-76
2022/01/29 09:54:28;;;;;;;31.68;10.00;;;;;;;2.02;89.48;100934.52;1632479;87;25855;-76
2022/01/29 09:56:54;;;;;;;35.17;9.93;;;;;;;2.05;89.25;100921.05;1632341;87;28470;-75
2022/01/29 09:59:20;;;;;;;30.75;9.48;;;;;;;2.08;89.24;100912.03;1632112;86;25895;-74
2022/01/29 10:01:47;;;;;;;37.03;10.60;;;;;;;2.14;89.26;100916.34;1632475;87;25917;-75
2022/01/29 10:04:13;;;;;;;33.65;9.75;;;;;;;2.18;89.18;100913.80;1632763;87;26289;-76
2022/01/29 10:06:43;;;;;;;27.93;10.10;;;;;;;2.23;89.22;100904.17;1632649;87;26525;-75
2022/01/29 10:09:11;;;;;;;31.87;10.32;;;;;;;2.28;89.23;100896.24;1632768;86;27463;-75
2022/01/29 10:11:36;;;;;;;29.42;8.20;;;;;;;2.33;89.23;100886.11;1632290;86;25993;-75
2022/01/29 10:14:05;;;;;;;22.37;9.20;;;;;;;2.39;89.02;100875.52;1632703;87;25893;-76
2022/01/29 10:16:37;;;;;;;28.05;10.35;;;;;;;2.42;88.69;100872.61;1632459;87;25903;-76
2022/01/29 10:19:12;;;;;;;33.05;8.35;;;;;;;2.45;88.76;100868.88;1632043;87;25895;-78
2022/01/29 10:21:48;;;;;;;27.07;8.15;;;;;;;2.48;88.83;100869.95;1632578;85;28310;-76
2022/01/29 10:24:19;;;;;;;32.20;10.30;;;;;;;2.52;88.90;100859.00;1632969;86;25829;-75
2022/01/29 10:26:49;;;;;;;20.02;7.47;;;;;;;2.59;88.54;100854.84;1632573;87;26625;-75
2022/01/29 10:29:25;;;;;;;22.42;8.33;;;;;;;2.62;88.35;100849.79;1632857;86;25887;-76
2022/01/29 10:31:55;;;;;;;27.82;7.95;;;;;;;2.65;88.10;100849.03;1632743;86;26490;-76
2022/01/29 10:34:31;;;;;;;28.60;9.55;;;;;;;2.67;88.15;100837.87;1632618;87;28279;-78
2022/01/29 10:37:23;;;;;;;25.37;7.90;;;;;;;2.71;88.08;100829.18;1632962;87;26458;-76
2022/01/29 10:39:54;;;;;;;20.90;7.42;;;;;;;2.73;87.68;100827.23;1632469;86;25812;-75
2022/01/29 10:42:26;;;;;;;24.75;9.60;;;;;;;2.74;87.53;100808.58;1632000;87;26842;-75
2022/01/29 10:44:55;;;;;;;25.50;8.43;;;;;;;2.77;87.75;100801.72;1632643;87;26447;-75
2022/01/29 10:47:22;;;;;;;29.55;9.23;;;;;;;2.82;87.88;100798.68;1632670;87;27487;-75
2022/01/29 10:49:55;;;;;;;25.55;8.90;;;;;;;2.85;87.54;100797.92;1632343;86;25969;-75
2022/01/29 10:52:34;;;;;;;27.67;8.75;;;;;;;2.88;87.22;100783.59;1632551;87;25765;-75
2022/01/29 10:55:05;;;;;;;29.57;8.80;;;;;;;2.89;86.99;100782.61;1632847;87;25836;-75
2022/01/29 10:57:42;;;;;;;36.45;10.50;;;;;;;2.87;87.14;100766.88;1632723;87;26609;-76
2022/01/29 11:00:20;;;;;;;25.75;8.30;;;;;;;2.88;86.53;100764.60;1632425;86;27509;-76
2022/01/29 11:02:48;;;;;;;26.52;9.68;;;;;;;2.88;86.35;100766.40;1632444;87;25332;-75
2022/01/29 11:05:15;;;;;;;34.38;9.10;;;;;;;2.88;86.72;100758.47;1633160;87;25795;-76
2022/01/29 11:07:52;;;;;;;32.73;9.63;;;;;;;2.91;86.88;100756.38;1632686;87;25842;-75
2022/01/29 11:10:19;;;;;;;29.85;7.65;;;;;;;2.88;86.38;100754.02;1632415;86;26117;-75
2022/01/29 11:12:49;;;;;;;27.20;7.80;;;;;;;2.88;86.24;100742.59;1632393;87;27480;-76
2022/01/29 11:15:18;;;;;;;31.87;9.75;;;;;;;2.88;86.21;100747.88;1632464;87;25988;-76
2022/01/29 11:17:48;;;;;;;33.75;9.85;;;;;;;2.88;86.31;100735.98;1632537;87;25895;-75
2022/01/29 11:20:16;;;;;;;36.58;10.13;;;;;;;2.89;86.48;100720.44;1617861;87;25870;-76
2022/01/29 11:22:46;;;;;;;34.88;10.32;;;;;;;2.93;86.96;100718.72;1632337;87;25944;-76
2022/01/29 11:25:23;;;;;;;29.40;9.98;;;;;;;2.97;86.49;100715.33;1632748;87;27480;-76
2022/01/29 11:28:11;;;;;;;35.58;10.85;;;;;;;2.97;86.58;100714.01;1632758;87;25792;-75
2022/01/29 11:30:37;;;;;;;33.88;10.35;;;;;;;2.98;86.67;100702.44;1632661;86;25779;-75
2022/01/29 11:33:03;;;;;;;25.50;8.68;;;;;;;2.99;86.68;100699.64;1632681;86;25843;-75
2022/01/29 11:35:31;;;;;;;38.58;11.50;;;;;;;2.99;86.52;100685.60;1632894;85;25968;-75
2022/01/29 11:38:08;;;;;;;29.87;11.55;;;;;;;3.00;86.84;100684.62;1632888;87;28086;-75